Accueil
METAR-TAF:

METAR-TAF

Aéroports :

Aéroport de Nador-Al Aroui

Nador, Maroc

latitude: 34-59-20N, longitude: 003-01-42W, altitude: 175 m

Observation

Le bulletin a été fait il y a 48 minutes, à 06:00 UTC
Vent 2 kt de sud/sud-ouest
Température 7°C
Humidité 93%
Pression 1024 hPa
Visibilité: 3000 m
Nuages fragmentés à une hauteur de 1400 ft
brume

METAR: GMMW 090600Z 20002KT 3000 BR BKN014 07/06 Q1024 NOSIG

Heure: 07:48 (06:48 UTC)

Prévision

Le bulletin a été fait il y a 1 heure et 48 minutes, à 05:00 UTC
Prévision valable du 09 à 06 UTC au 10 à 12 UTC
Vent 8 kt de nord-ouest
Visibilité: 3000 m
Nuages fragmentés à une hauteur de 1400 ft
brume
Evoluant progressivement
du 09 à 07 UTC au 09 à 11 UTC
Visibilité: 8000 m

TAF: GMMW 090500Z 0906/1012 31008KT 3000 BR BKN014 BECMG 0907/0911 8000 NSW

Observations et prévisions météorologiques de plus de 4000 aéroports (messages METAR et TAF).

Les stations disponibles sont représentées par des disques jaunes et rouges sur la carte.

Passer la souris dessus pour voir le nom de la station.

Cliquer dessus pour voir les observations et prévisions météorologiques.

Pour changer de carte: cliquez sur les boutons verts avec une croix noire pour zoomer, sur le bouton vert avec un tiret pour effectuer un zoom arrière, ou sur les flèches vertes pour les cartes adjacentes.


METAR-TAF: